createdAt,value
2019-01-05T00:01:15.967Z,6.30
2019-01-05T00:06:43.196Z,3.72
2019-01-05T00:09:29.905Z,2.80
2019-01-05T00:12:02.344Z,2.65
2019-01-05T00:14:32.412Z,2.55
2019-01-05T00:17:18.776Z,2.92
2019-01-05T00:20:08.324Z,2.90
2019-01-05T00:22:53.679Z,3.25
2019-01-05T00:25:23.805Z,2.62
2019-01-05T00:28:00.628Z,2.95
2019-01-05T00:30:34.453Z,3.37
2019-01-05T00:33:11.039Z,3.17
2019-01-05T00:36:05.091Z,2.80
2019-01-05T00:38:53.356Z,3.35
2019-01-05T00:41:27.136Z,3.15
2019-01-05T00:44:08.807Z,3.12
2019-01-05T00:46:39.423Z,3.05
2019-01-05T00:49:19.337Z,3.00
2019-01-05T00:52:07.903Z,3.37
2019-01-05T00:54:38.180Z,3.20
2019-01-05T00:57:08.463Z,3.40
2019-01-05T00:59:55.112Z,3.67
2019-01-05T01:02:41.883Z,4.03
2019-01-05T01:05:14.583Z,4.50
2019-01-05T01:08:20.356Z,5.40
2019-01-05T01:11:02.439Z,6.92
2019-01-05T01:13:49.464Z,7.00
2019-01-05T01:16:28.708Z,6.60
2019-01-05T01:19:15.022Z,5.97
2019-01-05T01:21:45.632Z,6.90
2019-01-05T01:24:30.822Z,6.95
2019-01-05T01:27:18.440Z,6.97
2019-01-05T01:29:48.480Z,6.50
2019-01-05T01:32:21.727Z,6.90
2019-01-05T01:34:51.773Z,5.97
2019-01-05T01:37:35.397Z,6.00
2019-01-05T01:40:07.575Z,5.00
2019-01-05T01:42:43.868Z,4.97
2019-01-05T01:45:30.826Z,6.00
2019-01-05T01:48:01.745Z,6.70
2019-01-05T01:50:48.777Z,6.50
2019-01-05T01:53:39.044Z,6.85
2019-01-05T01:56:09.903Z,6.15
2019-01-05T01:58:59.829Z,6.55
2019-01-05T02:01:33.372Z,5.80
2019-01-05T02:04:18.495Z,6.27
2019-01-05T02:06:51.172Z,6.10
2019-01-05T02:09:38.837Z,5.87
2019-01-05T02:12:11.203Z,5.95
2019-01-05T02:14:49.937Z,5.62
2019-01-05T02:17:28.632Z,6.42
2019-01-05T02:20:17.928Z,6.37
2019-01-05T02:23:23.272Z,6.85
2019-01-05T02:26:14.516Z,7.72
2019-01-05T02:29:27.193Z,6.83
2019-01-05T02:32:17.914Z,6.85
2019-01-05T02:35:19.547Z,7.80
2019-01-05T02:38:24.415Z,7.78
2019-01-05T02:41:02.470Z,7.78
2019-01-05T02:43:46.874Z,7.40
2019-01-05T02:47:10.733Z,7.85
2019-01-05T02:49:52.865Z,7.03
2019-01-05T02:52:49.704Z,7.58
2019-01-05T02:56:00.671Z,7.67
2019-01-05T02:59:19.541Z,7.72
2019-01-05T03:01:55.595Z,7.22
2019-01-05T03:04:54.560Z,7.55
2019-01-05T03:07:47.676Z,8.10
2019-01-05T03:10:52.084Z,7.80
2019-01-05T03:13:28.400Z,8.08
2019-01-05T03:16:12.715Z,7.62
2019-01-05T03:19:33.877Z,7.60
2019-01-05T03:22:38.037Z,7.08
2019-01-05T03:25:42.500Z,6.78
2019-01-05T03:28:24.280Z,6.58
2019-01-05T03:31:33.532Z,6.80
2019-01-05T03:34:33.656Z,6.40
2019-01-05T03:37:24.557Z,5.60
2019-01-05T03:40:09.408Z,5.30
2019-01-05T03:43:03.311Z,4.90
2019-01-05T03:45:59.976Z,4.92
2019-01-05T03:48:50.120Z,4.60
2019-01-05T03:51:37.620Z,4.30
2019-01-05T03:54:42.720Z,4.33
2019-01-05T03:57:18.643Z,4.47
2019-01-05T04:00:14.122Z,3.70
2019-01-05T04:03:26.903Z,3.05
2019-01-05T04:06:22.876Z,3.25
2019-01-05T04:09:31.059Z,3.20
2019-01-05T04:12:33.968Z,2.75
2019-01-05T04:15:39.405Z,3.10
2019-01-05T04:18:54.633Z,2.50
2019-01-05T04:22:13.537Z,2.95
2019-01-05T04:25:24.546Z,2.50
2019-01-05T04:28:48.947Z,2.30
2019-01-05T04:31:39.497Z,2.75
2019-01-05T04:34:45.611Z,2.40
2019-01-05T04:37:21.383Z,2.60
2019-01-05T04:40:19.079Z,2.12
2019-01-05T04:43:34.677Z,2.60
2019-01-05T04:46:22.676Z,2.37
2019-01-05T04:49:36.679Z,2.90
2019-01-05T04:52:53.141Z,2.60
2019-01-05T04:55:58.176Z,2.60
2019-01-05T04:59:09.522Z,2.40
2019-01-05T05:02:23.599Z,2.80
2019-01-05T05:05:36.793Z,2.75
2019-01-05T05:08:32.432Z,2.52
2019-01-05T05:11:52.749Z,2.67
2019-01-05T05:14:48.307Z,2.40
2019-01-05T05:17:59.243Z,3.12
2019-01-05T05:21:10.199Z,2.62
2019-01-05T05:23:54.399Z,2.90
2019-01-05T05:26:36.328Z,3.22
2019-01-05T05:29:31.828Z,3.00
2019-01-05T05:32:13.246Z,3.00
2019-01-05T05:35:17.904Z,3.10
2019-01-05T05:38:06.170Z,3.22
2019-01-05T05:41:07.834Z,3.15
2019-01-05T05:44:09.617Z,3.02
2019-01-05T05:47:04.303Z,3.20
2019-01-05T05:50:05.283Z,3.60
2019-01-05T05:52:59.404Z,3.42
2019-01-05T05:55:51.412Z,3.20
2019-01-05T05:58:44.920Z,3.20
2019-01-05T06:01:26.769Z,3.27
2019-01-05T06:04:16.267Z,3.47
2019-01-05T06:07:30.920Z,3.52
2019-01-05T06:10:20.023Z,3.40
2019-01-05T06:13:13.852Z,3.33
2019-01-05T06:16:07.963Z,3.80
2019-01-05T06:18:58.472Z,3.50
2019-01-05T06:22:00.480Z,4.03
2019-01-05T06:25:05.160Z,3.70
2019-01-05T06:28:14.731Z,4.10
2019-01-05T06:31:04.442Z,4.12
2019-01-05T06:34:04.242Z,4.00
2019-01-05T06:37:03.135Z,3.80
2019-01-05T06:39:50.789Z,3.98
2019-01-05T06:42:38.812Z,4.20
2019-01-05T06:45:52.185Z,3.90
2019-01-05T06:49:10.938Z,3.90
2019-01-05T06:52:09.547Z,4.70
2019-01-05T06:55:04.999Z,4.15
2019-01-05T06:57:44.127Z,4.85
2019-01-05T07:00:42.987Z,5.53
2019-01-05T07:03:54.931Z,5.17
2019-01-05T07:06:40.151Z,5.20
2019-01-05T07:09:41.959Z,5.40
2019-01-05T07:13:03.524Z,5.95
2019-01-05T07:15:39.731Z,4.72
2019-01-05T07:18:36.832Z,4.92
2019-01-05T07:22:03.848Z,5.60
2019-01-05T07:25:07.513Z,5.33
2019-01-05T07:28:12.047Z,5.15
2019-01-05T07:30:56.922Z,5.42
2019-01-05T07:34:03.501Z,5.60
2019-01-05T07:36:48.199Z,6.05
2019-01-05T07:40:02.412Z,6.55
2019-01-05T07:43:16.725Z,6.30
2019-01-05T07:46:19.068Z,6.20
2019-01-05T07:49:14.653Z,6.50
2019-01-05T07:52:22.441Z,8.18
2019-01-05T07:55:25.947Z,6.50
2019-01-05T07:58:30.507Z,7.13
2019-01-05T08:01:36.325Z,6.60
2019-01-05T08:04:18.132Z,7.28
2019-01-05T08:07:30.619Z,7.65
2019-01-05T08:10:18.108Z,7.10
2019-01-05T08:13:12.003Z,6.60
2019-01-05T08:16:22.572Z,8.00
2019-01-05T08:19:17.899Z,7.80
2019-01-05T08:22:05.225Z,8.10
2019-01-05T08:25:11.433Z,8.13
2019-01-05T08:28:10.532Z,7.80
2019-01-05T08:30:58.058Z,7.87
2019-01-05T08:34:10.328Z,9.03
2019-01-05T08:37:01.655Z,8.85
2019-01-05T08:40:18.704Z,7.80
2019-01-05T08:43:27.878Z,8.73
2019-01-05T08:46:37.232Z,7.70
2019-01-05T08:49:46.208Z,8.70
2019-01-05T08:52:24.643Z,8.53
2019-01-05T08:55:47.372Z,8.78
2019-01-05T08:58:32.235Z,7.97
2019-01-05T09:01:47.195Z,8.15
2019-01-05T09:04:44.544Z,8.23
2019-01-05T09:07:50.999Z,8.58
2019-01-05T09:10:42.848Z,8.60
2019-01-05T09:13:38.121Z,8.35
2019-01-05T09:16:32.608Z,9.53
2019-01-05T09:19:39.102Z,8.58
2019-01-05T09:22:26.741Z,8.20
2019-01-05T09:25:19.239Z,9.20
2019-01-05T09:28:26.188Z,8.48
2019-01-05T09:31:41.649Z,8.60
2019-01-05T09:34:48.135Z,7.93
2019-01-05T09:37:36.520Z,8.60
2019-01-05T09:40:42.863Z,8.50
2019-01-05T09:43:38.454Z,8.13
2019-01-05T09:46:56.308Z,8.40
2019-01-05T09:49:38.668Z,9.63
2019-01-05T09:52:42.752Z,7.60
2019-01-05T09:55:56.543Z,10.18
2019-01-05T09:58:56.420Z,8.50
2019-01-05T10:02:08.581Z,8.80
2019-01-05T10:04:57.042Z,8.75
2019-01-05T10:07:49.532Z,9.40
2019-01-05T10:11:02.048Z,8.90
2019-01-05T10:13:54.653Z,8.88
2019-01-05T10:16:59.447Z,9.20
2019-01-05T10:19:57.872Z,9.00
2019-01-05T10:22:48.435Z,8.03
2019-01-05T10:25:36.232Z,9.38
2019-01-05T10:28:53.451Z,8.87
2019-01-05T10:32:14.448Z,8.95
2019-01-05T10:35:26.404Z,8.08
2019-01-05T10:38:31.424Z,9.28
2019-01-05T10:41:04.548Z,8.20
2019-01-05T10:43:52.907Z,9.08
2019-01-05T10:46:57.664Z,9.20
2019-01-05T10:49:42.828Z,8.93
2019-01-05T10:52:41.182Z,8.83
2019-01-05T10:55:50.399Z,8.30
2019-01-05T10:58:52.000Z,9.10
2019-01-05T11:02:10.168Z,8.25
2019-01-05T11:05:24.151Z,8.70
2019-01-05T11:08:35.148Z,9.07
2019-01-05T11:11:44.903Z,8.08
2019-01-05T11:14:52.950Z,9.48
2019-01-05T11:18:06.819Z,8.63
2019-01-05T11:20:51.560Z,9.15
2019-01-05T11:23:45.551Z,8.68
2019-01-05T11:26:37.323Z,9.50
2019-01-05T11:29:30.157Z,9.53
2019-01-05T11:32:34.792Z,8.50
2019-01-05T11:35:40.629Z,8.25
2019-01-05T11:38:37.669Z,7.90
2019-01-05T11:41:31.068Z,8.40
2019-01-05T11:44:43.535Z,9.38
2019-01-05T11:47:35.921Z,8.60
2019-01-05T11:51:00.058Z,9.60
2019-01-05T11:54:22.024Z,8.33
2019-01-05T11:57:26.670Z,9.55
2019-01-05T12:00:14.612Z,9.00
2019-01-05T12:03:24.444Z,8.58
2019-01-05T12:06:16.919Z,9.70
2019-01-05T12:08:50.139Z,9.43
2019-01-05T12:11:43.612Z,9.90
2019-01-05T12:14:56.244Z,8.83
2019-01-05T12:17:44.398Z,9.40
2019-01-05T12:20:43.327Z,9.03
2019-01-05T12:23:36.135Z,8.60
2019-01-05T12:26:42.355Z,9.65
2019-01-05T12:29:33.833Z,9.00
2019-01-05T12:32:40.063Z,9.27
2019-01-05T12:35:41.304Z,10.48
2019-01-05T12:38:44.709Z,10.30
2019-01-05T12:41:35.372Z,10.30
2019-01-05T12:44:46.384Z,10.10
2019-01-05T12:47:45.379Z,10.25
2019-01-05T12:50:33.578Z,9.00
2019-01-05T12:53:56.534Z,9.35
2019-01-05T12:56:29.663Z,9.83
2019-01-05T12:59:28.184Z,9.83
2019-01-05T13:02:15.570Z,9.88
2019-01-05T13:05:10.999Z,10.28
2019-01-05T13:07:46.762Z,9.35
2019-01-05T13:10:47.744Z,9.60
2019-01-05T13:14:04.727Z,9.70
2019-01-05T13:17:07.037Z,10.10
2019-01-05T13:20:14.848Z,9.33
2019-01-05T13:23:12.060Z,9.63
2019-01-05T13:26:15.379Z,9.33
2019-01-05T13:29:33.524Z,9.35
2019-01-05T13:32:27.367Z,10.05
2019-01-05T13:35:24.637Z,9.20
2019-01-05T13:38:18.537Z,10.13
2019-01-05T13:41:08.441Z,9.70
2019-01-05T13:44:08.150Z,9.93
2019-01-05T13:47:28.025Z,9.70
2019-01-05T13:50:31.347Z,10.30
2019-01-05T13:53:10.060Z,9.90
2019-01-05T13:55:48.830Z,10.00
2019-01-05T13:58:35.175Z,9.53
2019-01-05T14:01:17.404Z,9.45
2019-01-05T14:04:04.048Z,9.13
2019-01-05T14:06:37.061Z,9.58
2019-01-05T14:09:23.962Z,9.58
2019-01-05T14:11:56.752Z,9.10
2019-01-05T14:14:26.800Z,8.50
2019-01-05T14:17:02.812Z,8.58
2019-01-05T14:19:41.958Z,8.95
2019-01-05T14:22:12.051Z,8.83
2019-01-05T14:24:54.300Z,9.48
2019-01-05T14:27:36.267Z,9.28
2019-01-05T14:30:08.472Z,10.13
2019-01-05T14:32:38.508Z,9.23
2019-01-05T14:35:11.307Z,9.20
2019-01-05T14:37:44.177Z,10.23
2019-01-05T14:40:30.416Z,9.63
2019-01-05T14:43:03.405Z,11.30
2019-01-05T14:45:45.347Z,8.97
2019-01-05T14:48:18.064Z,9.10
2019-01-05T14:50:48.108Z,8.65
2019-01-05T14:53:29.897Z,9.98
2019-01-05T14:56:12.553Z,9.50
2019-01-05T14:58:59.061Z,8.68
2019-01-05T15:01:29.341Z,9.30
2019-01-05T15:03:59.655Z,9.40
2019-01-05T15:06:47.221Z,10.43
2019-01-05T15:09:33.616Z,9.73
2019-01-05T15:12:20.394Z,9.65
2019-01-05T15:14:56.796Z,9.48
2019-01-05T15:17:43.535Z,9.95
2019-01-05T15:20:22.865Z,10.28
2019-01-05T15:22:55.877Z,10.43
2019-01-05T15:25:29.218Z,10.35
2019-01-05T15:28:05.191Z,10.65
2019-01-05T15:30:38.362Z,10.78
2019-01-05T15:33:19.009Z,10.40
2019-01-05T15:36:08.366Z,10.90
2019-01-05T15:38:38.555Z,11.60
2019-01-05T15:41:21.156Z,10.40
2019-01-05T15:43:52.487Z,11.40
2019-01-05T15:46:42.640Z,11.95
2019-01-05T15:49:29.488Z,11.20
2019-01-05T15:52:05.872Z,12.80
2019-01-05T15:54:36.612Z,12.50
2019-01-05T15:57:10.369Z,10.80
2019-01-05T15:59:59.208Z,11.93
2019-01-05T16:02:29.462Z,12.25
2019-01-05T16:05:03.651Z,12.15
2019-01-05T16:07:35.782Z,13.20
2019-01-05T16:10:24.679Z,11.75
2019-01-05T16:13:11.459Z,11.95
2019-01-05T16:15:44.875Z,11.93
2019-01-05T16:18:24.817Z,11.93
2019-01-05T16:21:13.772Z,11.90
2019-01-05T16:23:59.923Z,11.10
2019-01-05T16:26:33.510Z,10.75
2019-01-05T16:29:06.275Z,10.68
2019-01-05T16:31:39.330Z,11.13
2019-01-05T16:34:12.337Z,10.93
2019-01-05T16:36:57.608Z,10.38
2019-01-05T16:39:27.663Z,10.32
2019-01-05T16:42:00.689Z,10.67
2019-01-05T16:44:39.845Z,11.00
2019-01-05T16:47:19.234Z,9.73
2019-01-05T16:49:55.269Z,10.45
2019-01-05T16:52:43.380Z,9.60
2019-01-05T16:55:16.448Z,9.80
2019-01-05T16:58:02.908Z,9.40
2019-01-05T17:00:48.305Z,10.70
2019-01-05T17:03:36.600Z,9.53
2019-01-05T17:06:25.906Z,9.70
2019-01-05T17:09:12.217Z,10.45
2019-01-05T17:11:42.273Z,10.13
2019-01-05T17:14:12.654Z,9.63
2019-01-05T17:16:58.896Z,8.70
2019-01-05T17:19:37.984Z,10.23
2019-01-05T17:22:13.983Z,10.00
2019-01-05T17:24:49.783Z,10.05
2019-01-05T17:27:20.104Z,10.35
2019-01-05T17:29:50.171Z,11.00
2019-01-05T17:32:36.637Z,11.83
2019-01-05T17:35:25.171Z,11.50
2019-01-05T17:38:10.063Z,11.75
2019-01-05T17:40:49.333Z,13.13
2019-01-05T17:43:34.388Z,11.80
2019-01-05T17:46:04.431Z,12.13
2019-01-05T17:48:37.543Z,13.15
2019-01-05T17:51:07.617Z,13.70
2019-01-05T17:53:55.663Z,13.78
2019-01-05T17:56:37.484Z,13.85
2019-01-05T17:59:22.525Z,14.20
2019-01-05T18:01:52.953Z,14.85
2019-01-05T18:04:25.657Z,15.70
2019-01-05T18:07:07.772Z,15.38
2019-01-05T18:09:44.000Z,16.57
2019-01-05T18:12:16.844Z,15.65
2019-01-05T18:15:03.055Z,15.60
2019-01-05T18:17:49.657Z,16.73
2019-01-05T18:20:19.744Z,16.37
2019-01-05T18:22:49.781Z,17.15
2019-01-05T18:25:22.897Z,16.80
2019-01-05T18:27:56.089Z,17.42
2019-01-05T18:30:44.148Z,18.50
2019-01-05T18:33:14.187Z,17.80
2019-01-05T18:35:46.680Z,18.27
2019-01-05T18:38:25.946Z,19.42
2019-01-05T18:41:04.835Z,17.30
2019-01-05T18:43:51.210Z,18.87
2019-01-05T18:46:24.425Z,19.37
2019-01-05T18:49:06.604Z,19.13
2019-01-05T18:51:53.074Z,18.23
2019-01-05T18:54:23.233Z,19.62
2019-01-05T18:57:09.576Z,19.55
2019-01-05T18:59:46.068Z,19.48
2019-01-05T19:02:32.635Z,19.65
2019-01-05T19:05:20.688Z,18.65
2019-01-05T19:07:53.315Z,19.57
2019-01-05T19:10:25.998Z,19.85
2019-01-05T19:12:56.091Z,19.25
2019-01-05T19:15:26.139Z,19.20
2019-01-05T19:18:02.264Z,18.90
2019-01-05T19:20:38.285Z,19.20
2019-01-05T19:23:08.340Z,20.77
2019-01-05T19:25:38.519Z,19.37
2019-01-05T19:28:08.619Z,20.00
2019-01-05T19:30:47.963Z,20.82
2019-01-05T19:33:34.715Z,19.87
2019-01-05T19:36:17.303Z,20.35
2019-01-05T19:38:48.514Z,20.00
2019-01-05T19:41:21.832Z,21.12
2019-01-05T19:43:58.042Z,20.20
2019-01-05T19:46:34.258Z,20.00
2019-01-05T19:49:22.910Z,20.75
2019-01-05T19:51:53.163Z,22.10
2019-01-05T19:54:39.646Z,22.40
2019-01-05T19:57:22.594Z,21.70
2019-01-05T20:00:11.069Z,21.23
2019-01-05T20:02:41.436Z,21.82
2019-01-05T20:05:28.069Z,22.70
2019-01-05T20:08:04.207Z,21.80
2019-01-05T20:10:51.023Z,21.37
2019-01-05T20:13:33.522Z,22.77
2019-01-05T20:16:03.829Z,22.25
2019-01-05T20:18:46.321Z,23.15
2019-01-05T20:21:25.254Z,23.75
2019-01-05T20:24:04.525Z,22.40
2019-01-05T20:26:43.824Z,22.15
2019-01-05T20:29:26.261Z,24.80
2019-01-05T20:32:13.072Z,23.55
2019-01-05T20:34:48.999Z,24.60
2019-01-05T20:37:25.176Z,23.85
2019-01-05T20:39:55.640Z,25.05
2019-01-05T20:42:28.792Z,24.00
2019-01-05T20:44:59.123Z,24.07
2019-01-05T20:47:44.412Z,24.80
2019-01-05T20:50:29.854Z,26.30
2019-01-05T20:53:16.798Z,23.90
2019-01-05T20:55:49.877Z,25.03
2019-01-05T20:58:26.182Z,26.90
2019-01-05T21:01:02.474Z,25.68
2019-01-05T21:03:35.465Z,26.63
2019-01-05T21:06:05.811Z,24.77
2019-01-05T21:08:44.932Z,26.37
2019-01-05T21:11:15.384Z,25.88
2019-01-05T21:14:03.936Z,28.05
2019-01-05T21:16:52.368Z,25.90
2019-01-05T21:19:25.286Z,27.02
2019-01-05T21:22:01.650Z,27.67
2019-01-05T21:24:48.608Z,26.65
2019-01-05T21:27:35.627Z,27.30
2019-01-05T21:30:24.912Z,27.82
2019-01-05T21:33:16.756Z,27.10
2019-01-05T21:35:53.368Z,27.77
2019-01-05T21:38:36.022Z,29.00
2019-01-05T21:41:06.325Z,27.73
2019-01-05T21:43:53.230Z,28.00
2019-01-05T21:46:35.115Z,27.65
2019-01-05T21:49:21.428Z,26.73
2019-01-05T21:52:07.918Z,26.25
2019-01-05T21:54:41.092Z,24.77
2019-01-05T21:57:14.044Z,26.42
2019-01-05T21:59:52.996Z,25.92
2019-01-05T22:02:43.332Z,27.15
2019-01-05T22:05:25.735Z,25.92
2019-01-05T22:08:12.561Z,27.17
2019-01-05T22:10:42.608Z,25.40
2019-01-05T22:13:24.443Z,26.30
2019-01-05T22:16:00.212Z,26.65
2019-01-05T22:18:45.639Z,27.90
2019-01-05T22:21:32.071Z,29.07
2019-01-05T22:24:20.189Z,25.85
2019-01-05T22:26:59.126Z,26.27
2019-01-05T22:29:45.341Z,28.50
2019-01-05T22:32:18.676Z,28.57
2019-01-05T22:34:48.740Z,28.32
2019-01-05T22:37:31.048Z,29.20
2019-01-05T22:40:03.844Z,27.90
2019-01-05T22:42:42.872Z,28.38
2019-01-05T22:45:18.657Z,28.38
2019-01-05T22:47:54.440Z,28.30
2019-01-05T22:50:41.079Z,29.35
2019-01-05T22:53:11.148Z,27.48
2019-01-05T22:55:53.133Z,30.62
2019-01-05T22:58:29.300Z,30.75
2019-01-05T23:01:05.454Z,29.37
2019-01-05T23:03:47.793Z,29.37
2019-01-05T23:06:17.837Z,30.82
2019-01-05T23:08:47.903Z,28.65
2019-01-05T23:11:26.761Z,27.00
2019-01-05T23:14:13.380Z,28.83
2019-01-05T23:16:49.445Z,28.62
2019-01-05T23:19:37.566Z,30.05
2019-01-05T23:22:16.644Z,29.30
2019-01-05T23:24:52.768Z,30.00
2019-01-05T23:27:28.595Z,30.10
2019-01-05T23:29:58.647Z,29.05
2019-01-05T23:32:40.649Z,29.85
2019-01-05T23:35:27.066Z,31.40
2019-01-05T23:38:11.932Z,30.80
2019-01-05T23:40:58.571Z,31.00
2019-01-05T23:43:45.303Z,30.00
2019-01-05T23:46:30.614Z,31.12
2019-01-05T23:49:00.656Z,31.55
2019-01-05T23:51:36.877Z,30.60
2019-01-05T23:54:18.953Z,30.35
2019-01-05T23:56:49.003Z,29.80
2019-01-05T23:59:35.481Z,31.15
